createdAt,value
2022-09-07T00:02:23.403Z,17.00
2022-09-07T00:04:50.105Z,17.00
2022-09-07T00:07:17.029Z,17.00
2022-09-07T00:09:43.883Z,17.00
2022-09-07T00:12:10.681Z,17.00
2022-09-07T00:14:37.439Z,17.00
2022-09-07T00:17:04.108Z,17.00
2022-09-07T00:19:30.834Z,17.00
2022-09-07T00:21:57.507Z,17.00
2022-09-07T00:24:24.481Z,16.90
2022-09-07T00:26:51.177Z,16.90
2022-09-07T00:29:17.846Z,16.90
2022-09-07T00:31:44.577Z,16.90
2022-09-07T00:34:11.395Z,16.90
2022-09-07T00:36:38.075Z,16.90
2022-09-07T00:39:05.180Z,16.80
2022-09-07T00:41:32.000Z,16.80
2022-09-07T00:44:18.637Z,16.80
2022-09-07T00:46:46.916Z,16.80
2022-09-07T00:49:16.571Z,16.80
2022-09-07T00:51:48.537Z,16.80
2022-09-07T00:54:18.944Z,16.80
2022-09-07T00:56:46.715Z,16.70
2022-09-07T00:59:14.564Z,16.70
2022-09-07T01:01:41.393Z,16.60
2022-09-07T01:04:08.387Z,16.50
2022-09-07T01:06:36.324Z,16.50
2022-09-07T01:09:04.777Z,16.50
2022-09-07T01:11:33.817Z,16.50
2022-09-07T01:14:01.490Z,16.50
2022-09-07T01:16:37.663Z,16.50
2022-09-07T01:19:04.343Z,16.50
2022-09-07T01:21:33.891Z,16.50
2022-09-07T01:24:19.705Z,16.50
2022-09-07T01:26:55.356Z,16.40
2022-09-07T01:29:28.176Z,16.40
2022-09-07T01:32:13.994Z,16.40
2022-09-07T01:34:41.814Z,16.30
2022-09-07T01:37:16.770Z,16.30
2022-09-07T01:39:48.076Z,16.20
2022-09-07T01:42:15.736Z,16.20
2022-09-07T01:44:47.205Z,16.20
2022-09-07T01:47:14.060Z,16.20
2022-09-07T01:49:59.685Z,16.20
2022-09-07T01:52:26.351Z,16.30
2022-09-07T01:54:58.462Z,16.30
2022-09-07T01:57:34.083Z,16.30
2022-09-07T02:00:07.481Z,16.30
2022-09-07T02:02:38.795Z,16.30
2022-09-07T02:05:25.914Z,16.30
2022-09-07T02:07:57.635Z,16.20
2022-09-07T02:10:27.577Z,16.20
2022-09-07T02:13:07.063Z,16.20
2022-09-07T02:15:41.706Z,16.20
2022-09-07T02:18:09.291Z,16.10
2022-09-07T02:20:40.036Z,16.10
2022-09-07T02:23:08.866Z,16.10
2022-09-07T02:25:53.719Z,16.10
2022-09-07T02:28:29.016Z,16.10
2022-09-07T02:30:55.796Z,16.10
2022-09-07T02:33:22.536Z,16.10
2022-09-07T02:35:49.362Z,16.10
2022-09-07T02:38:16.169Z,16.10
2022-09-07T02:40:42.870Z,16.10
2022-09-07T02:43:10.249Z,16.10
2022-09-07T02:45:43.497Z,16.10
2022-09-07T02:48:26.287Z,16.00
2022-09-07T02:51:00.600Z,16.00
2022-09-07T02:53:42.894Z,16.00
2022-09-07T02:56:25.936Z,16.00
2022-09-07T02:59:03.847Z,16.00
2022-09-07T03:01:49.528Z,16.10
2022-09-07T03:04:34.096Z,16.20
2022-09-07T03:07:05.695Z,16.20
2022-09-07T03:09:36.054Z,16.30
2022-09-07T03:12:07.765Z,16.30
2022-09-07T03:14:36.232Z,16.40
2022-09-07T03:17:03.126Z,16.40
2022-09-07T03:19:29.851Z,16.30
2022-09-07T03:21:56.531Z,16.40
2022-09-07T03:24:23.235Z,16.40
2022-09-07T03:26:51.344Z,16.40
2022-09-07T03:29:18.655Z,16.30
2022-09-07T03:31:45.597Z,16.40
2022-09-07T03:34:12.384Z,16.30
2022-09-07T03:36:39.230Z,16.30
2022-09-07T03:39:07.302Z,16.30
2022-09-07T03:41:34.076Z,16.30
2022-09-07T03:44:05.126Z,16.30
2022-09-07T03:46:32.634Z,16.40
2022-09-07T03:48:59.642Z,16.40
2022-09-07T03:51:26.444Z,16.40
2022-09-07T03:53:54.509Z,16.30
2022-09-07T03:56:22.695Z,16.40
2022-09-07T03:58:49.876Z,16.40
2022-09-07T04:01:18.165Z,16.30
2022-09-07T04:03:45.841Z,16.40
2022-09-07T04:06:13.123Z,16.40
2022-09-07T04:08:40.588Z,16.40
2022-09-07T04:11:08.311Z,16.40
2022-09-07T04:13:35.702Z,16.40
2022-09-07T04:16:19.301Z,16.40
2022-09-07T04:18:46.209Z,16.40
2022-09-07T04:21:13.491Z,16.30
2022-09-07T04:23:41.059Z,16.30
2022-09-07T04:26:12.913Z,16.30
2022-09-07T04:28:39.568Z,16.30
2022-09-07T04:31:06.288Z,16.30
2022-09-07T04:33:33.513Z,16.30
2022-09-07T04:36:01.048Z,16.30
2022-09-07T04:38:28.223Z,16.30
2022-09-07T04:41:01.096Z,16.30
2022-09-07T04:43:28.582Z,16.30
2022-09-07T04:45:55.519Z,16.30
2022-09-07T04:48:22.273Z,16.40
2022-09-07T04:50:49.015Z,16.40
2022-09-07T04:53:15.679Z,16.40
2022-09-07T04:55:42.376Z,16.40
2022-09-07T04:58:09.715Z,16.40
2022-09-07T05:00:39.005Z,16.40
2022-09-07T05:03:06.187Z,16.40
2022-09-07T05:05:35.809Z,16.40
2022-09-07T05:08:02.586Z,16.40
2022-09-07T05:10:29.320Z,16.40
2022-09-07T05:12:55.944Z,16.40
2022-09-07T05:15:22.746Z,16.50
2022-09-07T05:17:51.018Z,16.50
2022-09-07T05:20:20.491Z,16.50
2022-09-07T05:22:47.475Z,16.60
2022-09-07T05:25:14.365Z,16.60
2022-09-07T05:27:41.082Z,16.60
2022-09-07T05:30:08.248Z,16.70
2022-09-07T05:32:34.980Z,16.80
2022-09-07T05:35:01.617Z,16.80
2022-09-07T05:37:28.326Z,16.90
2022-09-07T05:39:57.043Z,17.00
2022-09-07T05:42:23.861Z,17.00
2022-09-07T05:44:50.601Z,17.10
2022-09-07T05:47:17.322Z,17.10
2022-09-07T05:49:44.213Z,17.10
2022-09-07T05:52:11.948Z,17.10
2022-09-07T05:54:38.668Z,17.20
2022-09-07T05:57:07.134Z,17.30
2022-09-07T05:59:34.095Z,17.40
2022-09-07T06:02:01.020Z,17.50
2022-09-07T06:04:27.785Z,17.60
2022-09-07T06:12:28.124Z,17.80
2022-09-07T06:14:54.849Z,17.90
2022-09-07T06:17:21.671Z,17.90
2022-09-07T06:19:48.520Z,17.90
2022-09-07T06:22:15.249Z,17.90
2022-09-07T06:24:41.952Z,18.00
2022-09-07T06:27:08.686Z,18.10
2022-09-07T06:29:35.746Z,18.20
2022-09-07T06:34:49.263Z,18.50
2022-09-07T06:37:16.746Z,18.60
2022-09-07T06:39:43.585Z,18.80
2022-09-07T06:42:10.324Z,19.00
2022-09-07T06:44:37.051Z,19.10
2022-09-07T06:47:04.485Z,19.30
2022-09-07T06:49:31.773Z,19.30
2022-09-07T06:51:58.672Z,19.30
2022-09-07T06:57:12.096Z,19.30
2022-09-07T06:59:38.780Z,19.40
2022-09-07T07:02:06.340Z,19.50
2022-09-07T07:04:37.691Z,19.60
2022-09-07T07:07:06.631Z,19.70
2022-09-07T07:09:33.345Z,19.90
2022-09-07T07:12:00.093Z,20.00
2022-09-07T07:14:28.129Z,20.00
2022-09-07T07:16:55.831Z,20.00
2022-09-07T07:19:22.535Z,20.00
2022-09-07T07:22:10.763Z,20.10
2022-09-07T07:24:35.980Z,20.00
2022-09-07T07:27:02.870Z,20.10
2022-09-07T07:29:29.529Z,20.10
2022-09-07T07:31:56.245Z,20.10
2022-09-07T07:34:23.071Z,20.10
2022-09-07T07:36:49.774Z,20.20
2022-09-07T07:42:05.538Z,20.20
2022-09-07T07:44:32.841Z,20.30
2022-09-07T07:46:59.887Z,20.30
2022-09-07T07:49:26.875Z,20.30
2022-09-07T07:54:40.769Z,20.40
2022-09-07T07:57:07.685Z,20.40
2022-09-07T07:59:34.879Z,20.40
2022-09-07T08:02:05.545Z,20.50
2022-09-07T08:04:33.232Z,20.50
2022-09-07T08:07:00.233Z,20.70
2022-09-07T08:09:26.888Z,20.70
2022-09-07T08:11:53.540Z,20.70
2022-09-07T08:14:20.158Z,20.90
2022-09-07T08:16:46.865Z,21.00
2022-09-07T08:19:13.633Z,21.10
2022-09-07T08:21:40.662Z,21.10
2022-09-07T08:24:07.438Z,21.20
2022-09-07T08:26:34.397Z,21.30
2022-09-07T08:29:00.998Z,21.40
2022-09-07T08:31:29.521Z,21.50
2022-09-07T08:33:56.169Z,21.60
2022-09-07T08:36:22.814Z,21.70
2022-09-07T08:38:49.473Z,21.90
2022-09-07T08:41:22.234Z,22.00
2022-09-07T08:44:06.522Z,22.20
2022-09-07T08:46:36.554Z,22.20
2022-09-07T08:49:04.862Z,22.30
2022-09-07T08:51:42.061Z,22.30
2022-09-07T08:54:11.641Z,22.30
2022-09-07T08:57:20.630Z,22.20
2022-09-07T08:59:35.831Z,22.10
2022-09-07T09:08:05.014Z,21.90
2022-09-07T09:10:32.041Z,22.00
2022-09-07T09:12:58.642Z,22.00
2022-09-07T09:15:26.444Z,22.10
2022-09-07T09:18:13.868Z,22.10
2022-09-07T09:20:45.052Z,22.10
2022-09-07T09:23:13.069Z,22.10
2022-09-07T09:25:40.711Z,22.10
2022-09-07T09:28:09.826Z,22.20
2022-09-07T09:30:36.466Z,22.30
2022-09-07T09:33:12.309Z,22.40
2022-09-07T09:35:39.420Z,22.50
2022-09-07T09:38:29.219Z,22.50
2022-09-07T09:40:56.805Z,22.60
2022-09-07T09:43:30.330Z,22.70
2022-09-07T09:46:13.289Z,22.80
2022-09-07T09:48:41.610Z,22.80
2022-09-07T09:53:57.292Z,23.00
2022-09-07T09:56:35.700Z,23.10
2022-09-07T10:04:47.957Z,23.40
2022-09-07T10:07:18.134Z,23.40
2022-09-07T10:09:49.800Z,23.40
2022-09-07T10:12:25.301Z,23.30
2022-09-07T10:14:51.946Z,23.20
2022-09-07T10:17:24.901Z,23.10
2022-09-07T10:19:52.634Z,23.00
2022-09-07T10:22:36.489Z,22.90
2022-09-07T10:25:04.678Z,23.00
2022-09-07T10:27:35.601Z,23.00
2022-09-07T10:30:05.912Z,23.10
2022-09-07T10:32:43.805Z,23.20
2022-09-07T10:35:14.718Z,23.20
2022-09-07T10:38:06.878Z,23.30
2022-09-07T10:40:44.051Z,23.30
2022-09-07T10:43:23.663Z,23.40
2022-09-07T10:46:02.832Z,23.40
2022-09-07T10:48:29.489Z,23.40
2022-09-07T10:51:03.073Z,23.40
2022-09-07T10:53:41.360Z,23.50
2022-09-07T10:56:11.700Z,23.60
2022-09-07T10:59:03.555Z,23.60
2022-09-07T11:01:47.088Z,23.80
2022-09-07T11:04:32.666Z,23.80
2022-09-07T11:07:05.867Z,23.90
2022-09-07T11:09:58.819Z,24.00
2022-09-07T11:12:30.774Z,24.10
2022-09-07T11:15:16.958Z,24.20
2022-09-07T11:17:53.405Z,24.30
2022-09-07T11:20:26.424Z,24.40
2022-09-07T11:23:04.518Z,24.50
2022-09-07T11:25:41.842Z,24.50
2022-09-07T11:28:14.285Z,24.50
2022-09-07T11:30:43.596Z,24.50
2022-09-07T11:33:16.441Z,24.60
2022-09-07T11:35:46.123Z,24.60
2022-09-07T11:38:34.636Z,24.60
2022-09-07T11:41:20.165Z,24.70
2022-09-07T11:43:49.491Z,24.70
2022-09-07T11:46:19.440Z,24.80
2022-09-07T11:48:52.408Z,24.80
2022-09-07T11:51:38.678Z,24.90
2022-09-07T11:54:23.980Z,25.00
2022-09-07T11:56:53.991Z,25.10
2022-09-07T11:59:38.848Z,25.30
2022-09-07T12:02:11.610Z,25.40
2022-09-07T12:04:46.645Z,25.40
2022-09-07T12:07:32.131Z,25.50
2022-09-07T12:09:59.061Z,25.60
2022-09-07T12:12:25.795Z,25.60
2022-09-07T12:15:28.038Z,25.70
2022-09-07T12:18:05.544Z,25.80
2022-09-07T12:20:39.675Z,25.90
2022-09-07T12:23:17.874Z,26.00
2022-09-07T12:25:45.904Z,26.10
2022-09-07T12:28:21.897Z,26.10
2022-09-07T12:30:51.730Z,26.10
2022-09-07T12:33:26.474Z,26.10
2022-09-07T12:35:55.041Z,26.10
2022-09-07T12:38:44.660Z,26.10
2022-09-07T12:41:21.963Z,26.20
2022-09-07T12:43:48.578Z,26.30
2022-09-07T12:46:38.613Z,26.30
2022-09-07T12:49:14.542Z,26.30
2022-09-07T12:54:33.006Z,26.10
2022-09-07T13:00:12.248Z,26.10
2022-09-07T13:02:54.964Z,26.20
2022-09-07T13:05:41.871Z,26.20
2022-09-07T13:08:11.686Z,26.30
2022-09-07T13:10:40.695Z,26.30
2022-09-07T13:14:01.903Z,26.30
2022-09-07T13:16:06.513Z,26.40
2022-09-07T13:18:36.293Z,26.40
2022-09-07T13:21:08.997Z,26.40
2022-09-07T13:23:37.909Z,26.30
2022-09-07T13:26:06.865Z,26.30
2022-09-07T13:28:42.598Z,26.30
2022-09-07T13:31:27.829Z,26.30
2022-09-07T13:33:54.615Z,26.30
2022-09-07T13:36:25.702Z,26.30
2022-09-07T13:38:53.622Z,26.30
2022-09-07T13:41:26.149Z,26.50
2022-09-07T13:43:56.867Z,26.60
2022-09-07T13:46:32.075Z,26.70
2022-09-07T13:49:05.293Z,26.70
2022-09-07T13:51:37.165Z,26.60
2022-09-07T13:54:22.977Z,26.50
2022-09-07T13:57:10.970Z,26.50
2022-09-07T13:59:40.742Z,26.50
2022-09-07T14:02:32.308Z,26.60
2022-09-07T14:05:02.886Z,26.60
2022-09-07T14:07:30.368Z,26.60
2022-09-07T14:10:04.740Z,26.60
2022-09-07T14:12:31.681Z,26.60
2022-09-07T14:15:09.201Z,26.60
2022-09-07T14:17:36.155Z,26.60
2022-09-07T14:20:03.290Z,26.60
2022-09-07T14:22:34.116Z,26.40
2022-09-07T14:25:01.860Z,26.20
2022-09-07T14:27:33.312Z,26.20
2022-09-07T14:30:15.024Z,26.20
2022-09-07T14:32:41.828Z,26.20
2022-09-07T14:35:16.775Z,26.30
2022-09-07T14:37:44.783Z,26.30
2022-09-07T14:40:19.486Z,26.30
2022-09-07T14:42:46.844Z,26.30
2022-09-07T14:45:18.359Z,26.30
2022-09-07T14:47:46.528Z,26.30
2022-09-07T14:50:38.976Z,26.30
2022-09-07T14:56:00.921Z,26.10
2022-09-07T14:58:30.145Z,26.00
2022-09-07T15:03:57.678Z,25.90
2022-09-07T15:09:37.993Z,26.00
2022-09-07T15:12:27.348Z,26.00
2022-09-07T15:15:10.545Z,26.00
2022-09-07T15:17:45.010Z,25.80
2022-09-07T15:20:47.572Z,25.70
2022-09-07T15:23:15.408Z,25.60
2022-09-07T15:25:46.585Z,25.60
2022-09-07T15:34:02.291Z,25.70
2022-09-07T15:36:31.990Z,25.60
2022-09-07T15:39:00.492Z,25.60
2022-09-07T15:41:28.542Z,25.60
2022-09-07T15:43:56.675Z,25.50
2022-09-07T15:46:25.114Z,25.50
2022-09-07T15:48:53.606Z,25.50
2022-09-07T15:54:12.344Z,25.50
2022-09-07T15:56:40.429Z,25.50
2022-09-07T15:59:07.197Z,25.50
2022-09-07T16:04:20.956Z,25.50
2022-09-07T16:06:50.460Z,25.40
2022-09-07T16:09:17.860Z,25.40
2022-09-07T16:11:50.051Z,25.30
2022-09-07T16:14:17.610Z,25.30
2022-09-07T16:19:34.937Z,25.10
2022-09-07T16:22:02.189Z,25.10
2022-09-07T16:24:28.963Z,25.10
2022-09-07T16:26:55.629Z,25.20
2022-09-07T16:29:22.363Z,25.50
2022-09-07T16:34:36.037Z,25.90
2022-09-07T16:37:03.012Z,26.40
2022-09-07T16:39:29.721Z,26.30
2022-09-07T16:41:56.371Z,25.90
2022-09-07T16:44:23.004Z,25.60
2022-09-07T16:46:50.588Z,25.60
2022-09-07T16:49:17.764Z,25.50
2022-09-07T16:51:45.747Z,25.30
2022-09-07T16:54:13.608Z,25.00
2022-09-07T16:56:40.252Z,24.80
2022-09-07T16:59:09.470Z,24.50
2022-09-07T17:01:37.947Z,24.30
2022-09-07T17:04:10.283Z,24.10
2022-09-07T17:06:38.095Z,24.00
2022-09-07T17:09:04.981Z,23.80
2022-09-07T17:11:33.465Z,23.70
2022-09-07T17:14:01.397Z,23.50
2022-09-07T17:16:30.340Z,23.40
2022-09-07T17:21:46.520Z,23.20
2022-09-07T17:24:13.240Z,23.10
2022-09-07T17:26:42.430Z,23.00
2022-09-07T17:29:09.590Z,22.90
2022-09-07T17:34:23.564Z,22.70
2022-09-07T17:36:50.239Z,22.60
2022-09-07T17:39:18.482Z,22.50
2022-09-07T17:41:45.906Z,22.40
2022-09-07T17:44:13.571Z,22.30
2022-09-07T17:46:40.234Z,22.20
2022-09-07T17:49:08.691Z,22.10
2022-09-07T17:51:35.654Z,22.00
2022-09-07T17:54:03.336Z,21.90
2022-09-07T17:56:31.363Z,21.80
2022-09-07T18:00:10.749Z,21.70
2022-09-07T18:01:44.945Z,21.70
2022-09-07T18:04:11.847Z,21.60
2022-09-07T18:06:38.597Z,21.50
2022-09-07T18:09:05.223Z,21.40
2022-09-07T18:11:48.573Z,21.40
2022-09-07T18:14:15.911Z,21.40
2022-09-07T18:16:43.728Z,21.30
2022-09-07T18:19:11.115Z,21.30
2022-09-07T18:21:38.249Z,21.20
2022-09-07T18:24:07.470Z,21.20
2022-09-07T18:26:35.391Z,21.20
2022-09-07T18:29:04.037Z,21.10
2022-09-07T18:31:31.597Z,21.00
2022-09-07T18:33:58.564Z,21.00
2022-09-07T18:36:25.525Z,20.90
2022-09-07T18:38:52.346Z,20.80
2022-09-07T18:41:19.363Z,20.80
2022-09-07T18:43:49.221Z,20.70
2022-09-07T18:46:20.281Z,20.70
2022-09-07T18:48:47.084Z,20.70
2022-09-07T18:51:14.158Z,20.60
2022-09-07T18:53:41.064Z,20.70
2022-09-07T18:56:10.637Z,20.60
2022-09-07T18:58:38.178Z,20.60
2022-09-07T19:01:06.209Z,20.50
2022-09-07T19:03:33.121Z,20.40
2022-09-07T19:06:05.054Z,20.40
2022-09-07T19:08:32.668Z,20.30
2022-09-07T19:11:06.978Z,20.30
2022-09-07T19:13:34.367Z,20.30
2022-09-07T19:16:04.204Z,20.20
2022-09-07T19:18:31.035Z,20.20
2022-09-07T19:21:02.041Z,20.10
2022-09-07T19:23:28.729Z,20.10
2022-09-07T19:25:57.603Z,20.10
2022-09-07T19:28:24.381Z,20.10
2022-09-07T19:30:51.028Z,20.10
2022-09-07T19:33:17.735Z,20.10
2022-09-07T19:35:44.721Z,20.00
2022-09-07T19:38:12.637Z,20.00
2022-09-07T19:40:40.073Z,19.90
2022-09-07T19:43:06.729Z,19.90
2022-09-07T19:45:37.015Z,19.80
2022-09-07T19:48:03.696Z,19.80
2022-09-07T19:50:31.266Z,19.80
2022-09-07T19:52:57.955Z,19.80
2022-09-07T19:55:24.652Z,19.70
2022-09-07T19:57:52.412Z,19.70
2022-09-07T20:00:19.233Z,19.70
2022-09-07T20:02:47.502Z,19.80
2022-09-07T20:05:14.682Z,19.70
2022-09-07T20:07:41.344Z,19.70
2022-09-07T20:10:08.246Z,19.80
2022-09-07T20:12:34.916Z,19.80
2022-09-07T20:15:01.617Z,19.80
2022-09-07T20:17:33.076Z,19.80
2022-09-07T20:20:01.798Z,19.80
2022-09-07T20:22:28.573Z,19.70
2022-09-07T20:24:55.241Z,19.70
2022-09-07T20:27:22.074Z,19.70
2022-09-07T20:29:49.419Z,19.70
2022-09-07T20:32:16.861Z,19.60
2022-09-07T20:34:43.508Z,19.60
2022-09-07T20:37:10.151Z,19.60
2022-09-07T20:39:39.288Z,19.60
2022-09-07T20:42:06.692Z,19.60
2022-09-07T20:44:33.341Z,19.50
2022-09-07T20:46:59.949Z,19.50
2022-09-07T20:49:26.594Z,19.50
2022-09-07T20:51:53.212Z,19.40
2022-09-07T20:54:19.875Z,19.30
2022-09-07T20:56:46.505Z,19.30
2022-09-07T20:59:13.217Z,19.40
2022-09-07T21:01:40.026Z,19.40
2022-09-07T21:04:06.823Z,19.40
2022-09-07T21:06:33.492Z,19.40
2022-09-07T21:09:00.641Z,19.40
2022-09-07T21:11:29.090Z,19.40
2022-09-07T21:13:57.151Z,19.40
2022-09-07T21:16:24.170Z,19.40
2022-09-07T21:18:55.390Z,19.30
2022-09-07T21:21:23.134Z,19.30
2022-09-07T21:23:54.066Z,19.30
2022-09-07T21:26:21.098Z,19.30
2022-09-07T21:28:48.070Z,19.30
2022-09-07T21:31:14.868Z,19.40
2022-09-07T21:33:41.570Z,19.40
2022-09-07T21:36:10.051Z,19.40
2022-09-07T21:38:37.333Z,19.50
2022-09-07T21:41:07.675Z,19.50
2022-09-07T21:43:34.443Z,19.50
2022-09-07T21:46:18.250Z,19.50
2022-09-07T21:48:46.051Z,19.50
2022-09-07T21:51:13.550Z,19.50
2022-09-07T21:53:40.623Z,19.40
2022-09-07T21:56:09.213Z,19.40
2022-09-07T21:58:35.938Z,19.40
2022-09-07T22:01:14.323Z,19.40
2022-09-07T22:03:41.075Z,19.40
2022-09-07T22:06:08.300Z,19.40
2022-09-07T22:08:35.899Z,19.40
2022-09-07T22:11:03.590Z,19.40
2022-09-07T22:13:30.187Z,19.50
2022-09-07T22:15:57.045Z,19.40
2022-09-07T22:18:23.753Z,19.40
2022-09-07T22:21:00.506Z,19.40
2022-09-07T22:23:29.054Z,19.40
2022-09-07T22:25:55.667Z,19.40
2022-09-07T22:28:22.307Z,19.30
2022-09-07T22:30:48.902Z,19.20
2022-09-07T22:33:15.565Z,19.20
2022-09-07T22:35:42.221Z,19.20
2022-09-07T22:38:08.860Z,19.20
2022-09-07T22:40:35.557Z,19.10
2022-09-07T22:43:02.209Z,19.10
2022-09-07T22:45:28.980Z,19.00
2022-09-07T22:47:55.649Z,19.00
2022-09-07T22:50:22.334Z,19.00
2022-09-07T22:52:48.961Z,19.00
2022-09-07T22:55:15.724Z,19.00
2022-09-07T22:57:42.309Z,19.00
2022-09-07T23:00:09.692Z,19.00
2022-09-07T23:02:36.281Z,19.00
2022-09-07T23:05:04.163Z,19.10
2022-09-07T23:07:30.846Z,19.00
2022-09-07T23:09:57.435Z,19.00
2022-09-07T23:12:27.008Z,19.00
2022-09-07T23:14:53.650Z,18.90
2022-09-07T23:17:20.298Z,18.90
2022-09-07T23:19:47.087Z,18.90
2022-09-07T23:22:14.240Z,18.90
2022-09-07T23:24:41.655Z,18.80
2022-09-07T23:27:08.326Z,18.80
2022-09-07T23:29:34.976Z,18.70
2022-09-07T23:32:01.687Z,18.70
2022-09-07T23:34:28.311Z,18.70
2022-09-07T23:36:54.937Z,18.70
2022-09-07T23:39:21.772Z,18.60
2022-09-07T23:41:48.377Z,18.60
2022-09-07T23:44:15.052Z,18.60
2022-09-07T23:46:41.735Z,18.50
2022-09-07T23:49:08.448Z,18.50
2022-09-07T23:51:35.471Z,18.50
2022-09-07T23:54:02.317Z,18.40
2022-09-07T23:56:29.312Z,18.40
2022-09-07T23:58:55.947Z,18.40
